createdAt,value
2023-05-03T00:01:44.004Z,2.40
2023-05-03T00:04:11.019Z,3.47
2023-05-03T00:06:37.933Z,2.00
2023-05-03T00:09:04.806Z,2.47
2023-05-03T00:11:31.667Z,2.92
2023-05-03T00:13:58.515Z,2.83
2023-05-03T00:16:25.321Z,2.90
2023-05-03T00:18:52.183Z,2.85
2023-05-03T00:21:19.045Z,3.28
2023-05-03T00:23:45.877Z,2.67
2023-05-03T00:26:12.670Z,3.10
2023-05-03T00:28:39.515Z,2.92
2023-05-03T00:31:11.302Z,2.80
2023-05-03T00:33:38.876Z,2.58
2023-05-03T00:36:10.243Z,2.10
2023-05-03T00:38:37.417Z,1.80
2023-05-03T00:41:05.096Z,2.28
2023-05-03T00:43:32.368Z,1.90
2023-05-03T00:46:08.707Z,1.67
2023-05-03T00:48:42.551Z,1.83
2023-05-03T00:51:12.472Z,2.10
2023-05-03T00:53:39.297Z,1.48
2023-05-03T00:56:07.058Z,2.00
2023-05-03T00:58:36.258Z,1.70
2023-05-03T01:01:03.470Z,2.50
2023-05-03T01:03:30.607Z,2.17
2023-05-03T01:06:23.860Z,1.90
2023-05-03T01:09:28.982Z,1.85
2023-05-03T01:12:08.657Z,2.00
2023-05-03T01:14:50.438Z,1.83
2023-05-03T01:17:25.418Z,1.42
2023-05-03T01:19:57.997Z,1.67
2023-05-03T01:22:50.601Z,1.65
2023-05-03T01:25:17.515Z,1.80
2023-05-03T01:27:44.354Z,2.03
2023-05-03T01:30:12.620Z,2.17
2023-05-03T01:32:48.387Z,1.80
2023-05-03T01:35:30.394Z,2.03
2023-05-03T01:37:58.166Z,2.17
2023-05-03T01:40:28.092Z,1.80
2023-05-03T01:42:56.728Z,2.17
2023-05-03T01:45:23.954Z,1.98
2023-05-03T01:47:50.813Z,2.22
2023-05-03T01:50:17.700Z,2.28
2023-05-03T01:52:45.298Z,2.30
2023-05-03T01:55:12.154Z,2.30
2023-05-03T01:57:38.926Z,1.98
2023-05-03T02:00:07.110Z,2.00
2023-05-03T02:02:33.998Z,1.90
2023-05-03T02:05:01.077Z,2.13
2023-05-03T02:07:28.122Z,2.10
2023-05-03T02:09:54.988Z,1.90
2023-05-03T02:12:21.927Z,1.95
2023-05-03T02:14:48.756Z,1.90
2023-05-03T02:17:19.018Z,2.65
2023-05-03T02:19:45.831Z,2.05
2023-05-03T02:22:12.724Z,1.60
2023-05-03T02:24:40.107Z,1.90
2023-05-03T02:27:06.919Z,2.05
2023-05-03T02:29:34.152Z,2.13
2023-05-03T02:32:01.060Z,2.10
2023-05-03T02:34:28.050Z,2.08
2023-05-03T02:36:54.867Z,2.00
2023-05-03T02:39:21.714Z,2.03
2023-05-03T02:41:48.545Z,1.90
2023-05-03T02:44:15.441Z,2.20
2023-05-03T02:46:42.525Z,2.45
2023-05-03T02:49:09.902Z,2.60
2023-05-03T02:51:36.742Z,2.55
2023-05-03T02:54:03.643Z,2.28
2023-05-03T02:56:30.453Z,2.42
2023-05-03T02:58:57.272Z,2.40
2023-05-03T03:01:24.078Z,2.05
2023-05-03T03:03:50.965Z,1.90
2023-05-03T03:06:18.050Z,1.95
2023-05-03T03:08:44.867Z,2.30
2023-05-03T03:11:11.669Z,2.05
2023-05-03T03:13:39.908Z,3.22
2023-05-03T03:16:10.337Z,2.13
2023-05-03T03:18:37.610Z,2.70
2023-05-03T03:21:04.908Z,2.35
2023-05-03T03:23:31.784Z,2.40
2023-05-03T03:25:58.658Z,2.58
2023-05-03T03:28:25.739Z,2.10
2023-05-03T03:30:52.650Z,2.35
2023-05-03T03:33:22.128Z,1.92
2023-05-03T03:35:50.563Z,2.40
2023-05-03T03:38:17.352Z,2.25
2023-05-03T03:40:44.402Z,2.10
2023-05-03T03:43:11.385Z,2.15
2023-05-03T03:45:38.191Z,2.45
2023-05-03T03:48:05.375Z,2.30
2023-05-03T03:50:32.258Z,2.20
2023-05-03T03:52:59.049Z,2.60
2023-05-03T03:55:25.820Z,2.38
2023-05-03T03:57:52.675Z,1.90
2023-05-03T04:00:19.917Z,1.95
2023-05-03T04:02:47.287Z,2.00
2023-05-03T04:05:14.574Z,2.40
2023-05-03T04:07:41.348Z,2.53
2023-05-03T04:10:08.827Z,2.50
2023-05-03T04:12:35.664Z,1.92
2023-05-03T04:15:02.609Z,2.38
2023-05-03T04:17:29.552Z,2.08
2023-05-03T04:19:56.607Z,3.00
2023-05-03T04:22:23.521Z,2.03
2023-05-03T04:24:50.566Z,2.08
2023-05-03T04:27:18.232Z,2.17
2023-05-03T04:29:45.112Z,2.38
2023-05-03T04:32:14.672Z,1.92
2023-05-03T04:34:42.441Z,2.00
2023-05-03T04:37:09.738Z,1.88
2023-05-03T04:39:36.580Z,2.30
2023-05-03T04:42:04.020Z,2.25
2023-05-03T04:44:30.887Z,2.20
2023-05-03T04:46:57.699Z,2.13
2023-05-03T04:49:24.522Z,2.20
2023-05-03T04:51:51.321Z,1.90
2023-05-03T04:54:18.168Z,1.92
2023-05-03T04:56:45.049Z,2.05
2023-05-03T04:59:12.547Z,1.92
2023-05-03T05:01:39.848Z,1.70
2023-05-03T05:04:06.855Z,2.10
2023-05-03T05:06:33.793Z,1.73
2023-05-03T05:09:00.683Z,1.98
2023-05-03T05:11:27.790Z,1.60
2023-05-03T05:13:54.560Z,1.80
2023-05-03T05:16:22.165Z,1.83
2023-05-03T05:18:49.085Z,1.80
2023-05-03T05:21:16.128Z,2.10
2023-05-03T05:23:42.870Z,2.22
2023-05-03T05:26:10.185Z,1.80
2023-05-03T05:28:36.965Z,1.95
2023-05-03T05:31:03.745Z,1.95
2023-05-03T05:33:30.632Z,2.50
2023-05-03T05:35:57.506Z,1.95
2023-05-03T05:38:24.482Z,2.08
2023-05-03T05:40:51.297Z,2.00
2023-05-03T05:43:18.108Z,2.13
2023-05-03T05:45:44.978Z,2.17
2023-05-03T05:48:11.878Z,2.45
2023-05-03T05:50:38.752Z,3.92
2023-05-03T05:53:05.725Z,4.03
2023-05-03T05:55:32.591Z,3.40
2023-05-03T05:57:59.535Z,4.00
2023-05-03T06:00:26.378Z,3.20
2023-05-03T06:02:53.272Z,3.47
2023-05-03T06:05:20.802Z,4.68
2023-05-03T06:07:48.124Z,4.55
2023-05-03T06:10:15.077Z,4.57
2023-05-03T06:12:41.880Z,4.70
2023-05-03T06:15:09.729Z,4.40
2023-05-03T06:17:36.706Z,4.90
2023-05-03T06:20:05.058Z,3.10
2023-05-03T06:22:32.155Z,3.17
2023-05-03T06:24:59.110Z,2.58
2023-05-03T06:27:26.074Z,2.25
2023-05-03T06:29:52.944Z,2.08
2023-05-03T06:32:19.867Z,1.92
2023-05-03T06:34:46.660Z,1.73
2023-05-03T06:37:14.089Z,2.10
2023-05-03T06:39:40.924Z,1.60
2023-05-03T06:42:07.947Z,2.20
2023-05-03T06:44:34.884Z,1.70
2023-05-03T06:47:01.908Z,1.30
2023-05-03T06:49:28.747Z,1.52
2023-05-03T06:51:55.935Z,1.95
2023-05-03T06:54:22.798Z,1.98
2023-05-03T06:56:49.613Z,1.95
2023-05-03T06:59:16.870Z,1.30
2023-05-03T07:01:43.937Z,1.77
2023-05-03T07:04:10.967Z,1.75
2023-05-03T07:06:52.508Z,2.25
2023-05-03T07:09:35.343Z,1.90
2023-05-03T07:12:08.889Z,2.28
2023-05-03T07:14:35.922Z,1.45
2023-05-03T07:17:02.795Z,1.67
2023-05-03T07:19:30.196Z,1.52
2023-05-03T07:21:57.170Z,1.30
2023-05-03T07:24:26.114Z,1.50
2023-05-03T07:26:53.719Z,1.60
2023-05-03T07:29:21.143Z,1.10
2023-05-03T07:31:48.062Z,1.40
2023-05-03T07:34:14.977Z,1.67
2023-05-03T07:36:41.910Z,3.67
2023-05-03T07:39:08.738Z,1.40
2023-05-03T07:41:35.633Z,2.05
2023-05-03T07:44:02.484Z,1.25
2023-05-03T07:46:34.837Z,1.50
2023-05-03T07:49:05.529Z,1.40
2023-05-03T07:51:36.495Z,2.45
2023-05-03T07:54:04.262Z,1.58
2023-05-03T07:56:31.737Z,1.63
2023-05-03T07:59:08.451Z,1.15
2023-05-03T08:01:36.717Z,1.52
2023-05-03T08:04:04.719Z,1.63
2023-05-03T08:06:32.730Z,2.25
2023-05-03T08:08:59.734Z,1.30
2023-05-03T08:11:28.975Z,2.03
2023-05-03T08:13:56.555Z,1.70
2023-05-03T08:16:23.498Z,1.48
2023-05-03T08:18:50.401Z,1.60
2023-05-03T08:21:17.681Z,1.40
2023-05-03T08:23:45.192Z,1.70
2023-05-03T08:26:14.202Z,1.42
2023-05-03T08:28:41.574Z,1.85
2023-05-03T08:31:08.988Z,1.70
2023-05-03T08:33:36.068Z,2.05
2023-05-03T08:36:03.300Z,2.13
2023-05-03T08:38:30.349Z,1.45
2023-05-03T08:40:59.707Z,1.58
2023-05-03T08:43:28.717Z,1.40
2023-05-03T08:45:55.793Z,1.75
2023-05-03T08:48:23.241Z,1.90
2023-05-03T08:50:51.750Z,1.83
2023-05-03T08:53:18.682Z,1.75
2023-05-03T08:55:45.908Z,1.60
2023-05-03T08:58:13.636Z,2.03
2023-05-03T09:00:44.855Z,1.73
2023-05-03T09:03:12.596Z,1.75
2023-05-03T09:05:41.211Z,2.03
2023-05-03T09:08:10.385Z,1.77
2023-05-03T09:10:39.701Z,1.63
2023-05-03T09:13:07.773Z,1.38
2023-05-03T09:15:35.544Z,1.58
2023-05-03T09:18:13.794Z,1.85
2023-05-03T09:20:41.926Z,1.80
2023-05-03T09:23:09.884Z,1.85
2023-05-03T09:25:51.353Z,1.60
2023-05-03T09:28:20.028Z,2.13
2023-05-03T09:30:48.245Z,2.38
2023-05-03T09:33:22.378Z,1.80
2023-05-03T09:36:03.711Z,1.65
2023-05-03T09:38:33.615Z,1.58
2023-05-03T09:41:01.564Z,1.55
2023-05-03T09:43:28.826Z,1.80
2023-05-03T09:46:13.000Z,1.83
2023-05-03T09:48:41.976Z,1.80
2023-05-03T09:51:09.864Z,1.73
2023-05-03T09:53:38.300Z,2.30
2023-05-03T09:56:12.905Z,1.90
2023-05-03T09:58:41.238Z,2.17
2023-05-03T10:01:10.326Z,1.52
2023-05-03T10:03:45.364Z,2.00
2023-05-03T10:06:25.137Z,2.00
2023-05-03T10:09:05.712Z,1.60
2023-05-03T10:11:36.318Z,2.20
2023-05-03T10:14:05.573Z,2.47
2023-05-03T10:16:38.926Z,2.05
2023-05-03T10:19:14.653Z,2.15
2023-05-03T10:21:59.778Z,2.67
2023-05-03T10:24:26.613Z,1.50
2023-05-03T10:26:55.743Z,2.00
2023-05-03T10:29:35.073Z,1.90
2023-05-03T10:32:03.288Z,1.80
2023-05-03T10:34:34.278Z,1.60
2023-05-03T10:37:10.530Z,1.60
2023-05-03T10:39:37.797Z,1.60
2023-05-03T10:42:09.126Z,1.65
2023-05-03T10:44:40.519Z,1.65
2023-05-03T10:47:18.432Z,1.70
2023-05-03T10:49:46.098Z,2.10
2023-05-03T10:52:40.857Z,1.80
2023-05-03T10:55:13.893Z,1.60
2023-05-03T10:57:42.728Z,1.50
2023-05-03T11:00:14.081Z,1.70
2023-05-03T11:03:03.918Z,1.75
2023-05-03T11:05:31.604Z,2.15
2023-05-03T11:08:21.589Z,1.83
2023-05-03T11:10:59.354Z,2.70
2023-05-03T11:13:26.842Z,1.73
2023-05-03T11:15:55.181Z,1.92
2023-05-03T11:18:22.998Z,2.95
2023-05-03T11:20:50.205Z,2.17
2023-05-03T11:23:16.946Z,2.08
2023-05-03T11:25:43.735Z,2.08
2023-05-03T11:28:10.716Z,2.05
2023-05-03T11:30:37.760Z,2.20
2023-05-03T11:33:04.775Z,1.88
2023-05-03T11:35:33.106Z,2.28
2023-05-03T11:38:00.161Z,2.00
2023-05-03T11:40:27.851Z,1.60
2023-05-03T11:43:01.197Z,1.80
2023-05-03T11:45:38.361Z,1.65
2023-05-03T11:48:05.925Z,1.85
2023-05-03T11:50:55.439Z,1.70
2023-05-03T11:53:23.757Z,2.03
2023-05-03T11:55:54.937Z,2.05
2023-05-03T11:58:26.686Z,2.20
2023-05-03T12:00:55.870Z,2.00
2023-05-03T12:03:30.821Z,1.52
2023-05-03T12:05:59.734Z,2.00
2023-05-03T12:08:34.516Z,2.10
2023-05-03T12:11:06.443Z,2.50
2023-05-03T12:13:39.616Z,2.00
2023-05-03T12:18:58.779Z,2.17
2023-05-03T12:21:54.968Z,2.25
2023-05-03T12:24:28.712Z,2.00
2023-05-03T12:26:57.307Z,1.92
2023-05-03T12:29:24.959Z,2.00
2023-05-03T12:31:52.671Z,1.90
2023-05-03T12:34:33.723Z,2.28
2023-05-03T12:37:04.764Z,1.65
2023-05-03T12:39:33.059Z,1.80
2023-05-03T12:44:34.424Z,2.20
2023-05-03T12:47:02.622Z,1.90
2023-05-03T12:49:30.138Z,1.75
2023-05-03T12:54:33.435Z,3.70
2023-05-03T12:57:08.493Z,2.67
2023-05-03T12:59:42.346Z,1.90
2023-05-03T13:04:57.781Z,1.80
2023-05-03T13:07:32.035Z,2.03
2023-05-03T13:12:30.975Z,2.05
2023-05-03T13:14:58.126Z,2.30
2023-05-03T13:17:25.366Z,2.00
2023-05-03T13:19:53.192Z,2.08
2023-05-03T13:22:20.006Z,1.77
2023-05-03T13:24:47.791Z,2.65
2023-05-03T13:27:16.404Z,2.22
2023-05-03T13:29:43.273Z,2.40
2023-05-03T13:32:10.632Z,1.80
2023-05-03T13:34:37.550Z,2.72
2023-05-03T13:37:04.821Z,2.67
2023-05-03T13:39:32.364Z,2.38
2023-05-03T13:41:59.497Z,2.30
2023-05-03T13:44:26.470Z,2.50
2023-05-03T13:46:53.898Z,2.30
2023-05-03T13:49:20.995Z,2.75
2023-05-03T13:51:48.077Z,2.35
2023-05-03T13:54:15.018Z,2.30
2023-05-03T13:56:42.940Z,2.25
2023-05-03T13:59:12.440Z,2.50
2023-05-03T14:01:40.373Z,2.40
2023-05-03T14:04:07.381Z,2.35
2023-05-03T14:06:34.364Z,2.40
2023-05-03T14:09:02.011Z,3.95
2023-05-03T14:11:31.134Z,2.17
2023-05-03T14:13:58.994Z,2.25
2023-05-03T14:18:57.460Z,2.22
2023-05-03T14:21:24.609Z,2.58
2023-05-03T14:23:51.717Z,2.47
2023-05-03T14:26:20.067Z,3.00
2023-05-03T14:28:47.151Z,2.92
2023-05-03T14:31:14.011Z,3.10
2023-05-03T14:33:40.822Z,2.70
2023-05-03T14:36:10.827Z,2.83
2023-05-03T14:38:37.696Z,4.90
2023-05-03T14:41:04.875Z,4.10
2023-05-03T14:43:32.364Z,2.70
2023-05-03T14:45:59.199Z,2.72
2023-05-03T14:48:26.221Z,2.85
2023-05-03T14:50:53.489Z,2.80
2023-05-03T14:53:21.878Z,3.53
2023-05-03T14:55:48.747Z,3.13
2023-05-03T14:58:16.006Z,3.17
2023-05-03T15:00:43.501Z,3.00
2023-05-03T15:03:11.996Z,2.92
2023-05-03T15:05:49.420Z,3.28
2023-05-03T15:08:19.350Z,3.08
2023-05-03T15:10:47.822Z,2.55
2023-05-03T15:13:16.317Z,3.13
2023-05-03T15:15:44.318Z,3.05
2023-05-03T15:18:11.629Z,3.40
2023-05-03T15:20:39.136Z,3.15
2023-05-03T15:23:06.233Z,3.00
2023-05-03T15:25:33.173Z,3.00
2023-05-03T15:28:03.797Z,2.90
2023-05-03T15:30:32.113Z,3.15
2023-05-03T15:32:59.115Z,2.65
2023-05-03T15:35:26.197Z,2.80
2023-05-03T15:37:53.213Z,2.85
2023-05-03T15:40:23.777Z,2.92
2023-05-03T15:42:52.325Z,2.97
2023-05-03T15:45:19.496Z,2.85
2023-05-03T15:47:46.452Z,3.17
2023-05-03T15:50:13.924Z,2.70
2023-05-03T15:52:42.214Z,3.20
2023-05-03T15:55:09.889Z,2.70
2023-05-03T15:57:37.532Z,3.00
2023-05-03T16:00:09.362Z,3.05
2023-05-03T16:02:36.145Z,2.60
2023-05-03T16:05:03.113Z,3.38
2023-05-03T16:07:30.092Z,2.65
2023-05-03T16:09:57.085Z,3.42
2023-05-03T16:12:24.532Z,3.15
2023-05-03T16:14:51.376Z,3.40
2023-05-03T16:17:18.394Z,3.65
2023-05-03T16:19:45.195Z,3.42
2023-05-03T16:22:12.105Z,3.30
2023-05-03T16:24:39.205Z,3.95
2023-05-03T16:27:06.316Z,4.43
2023-05-03T16:29:34.748Z,4.38
2023-05-03T16:32:01.883Z,4.88
2023-05-03T16:34:28.796Z,4.35
2023-05-03T16:36:55.754Z,4.15
2023-05-03T16:39:22.714Z,3.47
2023-05-03T16:41:49.512Z,4.18
2023-05-03T16:44:18.550Z,3.08
2023-05-03T16:46:46.451Z,3.67
2023-05-03T16:49:13.327Z,3.17
2023-05-03T16:51:41.186Z,3.28
2023-05-03T16:54:08.082Z,3.42
2023-05-03T16:56:34.973Z,3.10
2023-05-03T16:59:03.684Z,3.10
2023-05-03T17:01:30.521Z,3.10
2023-05-03T17:03:57.454Z,3.53
2023-05-03T17:06:24.311Z,2.97
2023-05-03T17:08:51.521Z,2.97
2023-05-03T17:11:18.550Z,3.42
2023-05-03T17:13:45.567Z,3.30
2023-05-03T17:16:15.218Z,3.53
2023-05-03T17:18:42.938Z,2.80
2023-05-03T17:21:11.184Z,3.42
2023-05-03T17:23:39.441Z,3.50
2023-05-03T17:26:08.927Z,3.05
2023-05-03T17:28:36.578Z,3.47
2023-05-03T17:31:08.924Z,3.40
2023-05-03T17:33:36.330Z,3.53
2023-05-03T17:36:05.038Z,3.40
2023-05-03T17:38:34.158Z,3.35
2023-05-03T17:41:08.674Z,3.47
2023-05-03T17:43:36.616Z,3.33
2023-05-03T17:46:12.200Z,3.40
2023-05-03T17:51:09.669Z,3.80
2023-05-03T17:53:36.516Z,3.75
2023-05-03T17:56:03.391Z,3.67
2023-05-03T17:58:30.210Z,3.90
2023-05-03T18:00:57.627Z,4.03
2023-05-03T18:03:25.732Z,3.22
2023-05-03T18:05:53.066Z,3.17
2023-05-03T18:08:19.929Z,3.63
2023-05-03T18:10:47.031Z,2.90
2023-05-03T18:13:13.982Z,3.47
2023-05-03T18:15:41.868Z,3.60
2023-05-03T18:18:09.468Z,3.72
2023-05-03T18:20:36.483Z,3.58
2023-05-03T18:23:03.828Z,3.47
2023-05-03T18:25:30.653Z,3.72
2023-05-03T18:27:57.798Z,3.83
2023-05-03T18:30:28.023Z,3.13
2023-05-03T18:32:55.912Z,2.90
2023-05-03T18:35:23.198Z,4.43
2023-05-03T18:37:50.127Z,2.90
2023-05-03T18:40:17.143Z,3.00
2023-05-03T18:42:44.162Z,3.30
2023-05-03T18:45:11.796Z,3.63
2023-05-03T18:47:38.692Z,2.95
2023-05-03T18:50:06.324Z,5.35
2023-05-03T18:52:33.402Z,3.00
2023-05-03T18:55:00.563Z,3.20
2023-05-03T18:57:27.355Z,3.35
2023-05-03T19:00:01.090Z,2.80
2023-05-03T19:02:31.142Z,3.22
2023-05-03T19:04:59.133Z,3.80
2023-05-03T19:07:26.070Z,3.15
2023-05-03T19:09:54.151Z,2.58
2023-05-03T19:12:20.994Z,3.10
2023-05-03T19:14:47.774Z,3.22
2023-05-03T19:17:14.586Z,3.50
2023-05-03T19:19:41.436Z,3.20
2023-05-03T19:22:08.213Z,3.28
2023-05-03T19:24:35.009Z,3.35
2023-05-03T19:27:02.282Z,4.85
2023-05-03T19:29:29.736Z,2.80
2023-05-03T19:31:56.546Z,3.13
2023-05-03T19:34:23.394Z,3.28
2023-05-03T19:36:50.340Z,3.47
2023-05-03T19:39:17.145Z,3.40
2023-05-03T19:41:44.173Z,3.10
2023-05-03T19:44:11.100Z,2.63
2023-05-03T19:46:38.011Z,3.10
2023-05-03T19:49:05.020Z,3.05
2023-05-03T19:51:32.845Z,2.03
2023-05-03T19:54:03.173Z,2.55
2023-05-03T19:56:30.154Z,2.50
2023-05-03T19:58:57.270Z,2.33
2023-05-03T20:01:24.178Z,2.10
2023-05-03T20:03:53.444Z,2.13
2023-05-03T20:06:20.724Z,2.60
2023-05-03T20:08:47.577Z,2.13
2023-05-03T20:11:14.486Z,2.45
2023-05-03T20:13:41.288Z,2.35
2023-05-03T20:16:08.556Z,2.38
2023-05-03T20:18:35.592Z,2.55
2023-05-03T20:21:03.769Z,2.88
2023-05-03T20:23:30.666Z,2.63
2023-05-03T20:25:57.632Z,2.83
2023-05-03T20:28:24.639Z,2.60
2023-05-03T20:30:51.704Z,2.70
2023-05-03T20:33:18.586Z,2.80
2023-05-03T20:35:45.499Z,2.58
2023-05-03T20:38:12.290Z,3.20
2023-05-03T20:40:39.197Z,2.80
2023-05-03T20:43:06.822Z,3.00
2023-05-03T20:45:33.744Z,3.20
2023-05-03T20:48:00.655Z,2.92
2023-05-03T20:50:27.487Z,2.90
2023-05-03T20:52:55.423Z,2.67
2023-05-03T20:55:22.679Z,2.83
2023-05-03T20:57:49.448Z,2.88
2023-05-03T21:00:16.407Z,3.20
2023-05-03T21:02:43.479Z,2.92
2023-05-03T21:05:11.396Z,2.97
2023-05-03T21:07:38.647Z,2.33
2023-05-03T21:10:07.141Z,2.67
2023-05-03T21:12:34.830Z,2.50
2023-05-03T21:15:01.978Z,2.70
2023-05-03T21:17:28.949Z,2.28
2023-05-03T21:19:55.861Z,2.38
2023-05-03T21:22:22.757Z,2.30
2023-05-03T21:24:50.170Z,2.35
2023-05-03T21:27:19.161Z,2.70
2023-05-03T21:29:46.335Z,2.47
2023-05-03T21:32:13.347Z,2.30
2023-05-03T21:34:40.188Z,2.95
2023-05-03T21:37:07.288Z,2.65
2023-05-03T21:39:34.426Z,3.05
2023-05-03T21:42:01.215Z,2.38
2023-05-03T21:44:28.059Z,2.45
2023-05-03T21:46:55.013Z,2.15
2023-05-03T21:49:22.165Z,2.63
2023-05-03T21:51:48.966Z,2.38
2023-05-03T21:54:17.187Z,2.50
2023-05-03T21:56:44.037Z,2.88
2023-05-03T21:59:10.889Z,2.25
2023-05-03T22:01:38.120Z,2.65
2023-05-03T22:04:05.662Z,2.55
2023-05-03T22:06:32.696Z,3.13
2023-05-03T22:08:59.837Z,2.50
2023-05-03T22:11:26.635Z,2.65
2023-05-03T22:14:06.796Z,2.33
2023-05-03T22:16:35.190Z,2.92
2023-05-03T22:19:02.097Z,2.60
2023-05-03T22:21:28.886Z,2.92
2023-05-03T22:23:55.714Z,2.80
2023-05-03T22:26:22.505Z,2.83
2023-05-03T22:28:49.439Z,2.60
2023-05-03T22:31:16.473Z,2.47
2023-05-03T22:33:44.996Z,2.92
2023-05-03T22:36:12.946Z,2.83
2023-05-03T22:38:42.622Z,2.65
2023-05-03T22:41:09.873Z,3.03
2023-05-03T22:43:37.045Z,2.80
2023-05-03T22:46:04.196Z,3.00
2023-05-03T22:48:32.501Z,2.75
2023-05-03T22:50:59.911Z,2.63
2023-05-03T22:53:26.845Z,3.33
2023-05-03T22:56:01.653Z,2.63
2023-05-03T22:58:28.919Z,2.90
2023-05-03T23:00:56.541Z,2.97
2023-05-03T23:03:23.525Z,2.70
2023-05-03T23:05:53.081Z,2.80
2023-05-03T23:08:20.835Z,2.97
2023-05-03T23:10:47.717Z,2.83
2023-05-03T23:13:14.657Z,3.00
2023-05-03T23:15:41.575Z,3.13
2023-05-03T23:18:08.646Z,3.15
2023-05-03T23:20:35.585Z,3.00
2023-05-03T23:23:02.446Z,3.25
2023-05-03T23:25:29.670Z,2.97
2023-05-03T23:27:56.715Z,2.80
2023-05-03T23:30:24.057Z,2.85
2023-05-03T23:32:51.504Z,2.67
2023-05-03T23:35:19.662Z,3.08
2023-05-03T23:37:46.524Z,3.33
2023-05-03T23:40:13.370Z,2.83
2023-05-03T23:42:41.387Z,2.95
2023-05-03T23:45:09.667Z,3.22
2023-05-03T23:47:37.033Z,2.90
2023-05-03T23:50:04.753Z,2.78
2023-05-03T23:52:31.919Z,2.70
2023-05-03T23:54:58.695Z,2.90
2023-05-03T23:57:25.820Z,3.00
2023-05-03T23:59:52.639Z,2.80
